Malolos, Philippines
Current Conditions -  °F | °C
As of 7:00 AM on Friday 19 Dec 2014 (Local Time) from RPLL Reporting Station
Scattered Clouds Scattered Clouds  
Wind Chill: 75°   Ceiling: Unl
Heat Index: 75°   Visibility: 6mi
Dew Point: 70°   Wind: 1mph
Humidity: 83%   Direction: NA
Pressure: 30"   Gusts: NA
Location:  14.85°N, 120.81°E
Report Text: RPLL 182300Z VRB01KT 9000 FEW025 SCT300 24/21 Q1016 NOSIG RMK A3000
Loading
Personal Weather Stations






























Interactive Weather Map New forecast layout! Learn more

10-Day Weather Forecast

Advertisements
Track Severe Weather on mobile